EPSY

Szczytno-Szymany International Airport

Poland
METAR EPSY 231000Z VRB03KT 9999 SCT019 M07/M11 Q1026
Observed Flight Rules
Feb-23 @ 10:00 UTC (32 minutes ago) Visual Flight Rules
Wind Visibility Clouds
Variable at 3 knots 10,000+ meters
  • Scattered at 1,900' AGL
Temperatures Readings
Current -7°C / 19°F
Dewpoint -11°C / 12°F
Humidity 73%
Altimeter 30.3" Hg
Pressure 1026 hPa
Elevation 141
METAR EPSY 231000Z VRB03KT 9999 SCT019 M07/M11 Q1026
Observed Flight Rules
Feb-23 @ 10:00 UTC
(32 minutes ago)
VFR
Wind Visibility
Variable at 3 knots 10,000+ meters
Clouds
  • Scattered at 1,900' AGL
Temperature Dewpoint
-7°C / 19°F -11°C / 12°F
Humidity Altimeter Pressure
73% 30.3" Hg 1026 hPa